Terminal Aerodrome Forecast
Issued by NWS

Home | Current Version | Previous Version | Text Only | Print | Product List | Glossary On
Versions: 1 2 3 4 5 6 7 8 9 10 11 12 13 14 15 16 17 18 19 20 21 22 23 24 25 26 27 28 29 30
000
FTUS42 KJAX 141100
TAFCRG
TAF
KCRG 141121Z 1412/1512 23004KT P6SM BKN250
     FM141500 25005KT P6SM SCT040 BKN250
     FM141800 24008KT P6SM VCTS SCT050CB BKN250
      TEMPO 1418/1422 3SM TSRA BKN040CB
     FM142200 18008KT P6SM VCTS SCT050CB BKN250
      TEMPO 1422/1502 5SM TSRA BKN040CB
     FM150200 21004KT P6SM BKN250
      TEMPO 1509/1512 5SM BR=

USA.gov is the U.S. government's official web portal to all federal, state and local government web resources and services.